Time;durP1;ratioP1;P1;durP2;ratioP2;P2;SDS_P1;SDS_P2;PMS_P1;PMS_P2;Temp;Humidity;BMP_temperature;BMP_pressure;BME280_temperature;BME280_humidity;BME280_pressure;Samples;Min_cycle;Max_cycle;Signal;HPM_P1;HPM_P2
2022/03/08 00:02:12;;;;;;;19.27;8.93;;;;;;;2.00;68.67;102408.75;5036394;28;20468;-43
2022/03/08 00:04:37;;;;;;;16.70;9.45;;;;;;;2.24;67.91;102414.09;5037010;28;20521;-44
2022/03/08 00:07:03;;;;;;;17.83;10.00;;;;;;;2.20;67.69;102416.03;5036644;28;20480;-43
2022/03/08 00:09:29;;;;;;;19.55;9.77;;;;;;;2.06;68.35;102408.38;5036296;28;20029;-43
2022/03/08 00:11:54;;;;;;;17.17;9.27;;;;;;;2.15;68.13;102410.38;5036565;28;20018;-43
2022/03/08 00:14:20;;;;;;;17.02;9.48;;;;;;;2.11;68.09;102419.13;5036367;28;20029;-43
2022/03/08 00:16:45;;;;;;;20.90;10.25;;;;;;;2.10;67.83;102404.75;5036900;28;20140;-43
2022/03/08 00:19:11;;;;;;;17.75;9.32;;;;;;;2.23;67.72;102398.00;5036291;28;20388;-42
2022/03/08 00:21:37;;;;;;;19.00;8.82;;;;;;;2.15;67.18;102405.28;5036410;28;20159;-43
2022/03/08 00:24:02;;;;;;;16.25;9.32;;;;;;;2.06;67.69;102400.72;5036216;28;20436;-42
2022/03/08 00:26:28;;;;;;;17.15;9.38;;;;;;;1.98;67.97;102402.91;5036124;28;20022;-43
2022/03/08 00:28:53;;;;;;;18.20;9.80;;;;;;;1.95;68.23;102400.56;5036126;28;20072;-42
2022/03/08 00:31:18;;;;;;;17.35;9.15;;;;;;;2.14;67.61;102401.09;5036062;28;20077;-43
2022/03/08 00:33:44;;;;;;;16.80;9.13;;;;;;;2.05;67.40;102398.28;5035653;28;20032;-43
2022/03/08 00:36:10;;;;;;;17.42;9.63;;;;;;;2.17;67.36;102395.81;5036543;28;20033;-42
2022/03/08 00:38:35;;;;;;;16.95;9.18;;;;;;;2.21;67.03;102402.34;5034817;28;20076;-43
2022/03/08 00:41:00;;;;;;;17.00;8.73;;;;;;;2.14;67.25;102406.19;5018123;28;20468;-43
2022/03/08 00:43:26;;;;;;;19.73;9.20;;;;;;;2.25;66.86;102406.38;5035779;28;20025;-44
2022/03/08 00:45:52;;;;;;;16.20;8.98;;;;;;;2.15;66.98;102400.19;5035804;28;20035;-44
2022/03/08 00:48:17;;;;;;;18.05;9.13;;;;;;;2.16;66.55;102404.38;5035757;28;20033;-43
2022/03/08 00:50:42;;;;;;;17.20;9.27;;;;;;;2.12;66.98;102402.09;5035623;28;20025;-43
2022/03/08 00:53:08;;;;;;;16.17;8.90;;;;;;;1.85;67.99;102394.38;5035938;28;20052;-44
2022/03/08 00:55:34;;;;;;;16.20;9.02;;;;;;;1.82;67.78;102392.81;5034669;28;20021;-43
2022/03/08 00:58:01;;;;;;;19.02;9.57;;;;;;;1.82;67.69;102379.25;5035638;28;20055;-43
2022/03/08 01:00:28;;;;;;;17.38;9.30;;;;;;;1.90;67.75;102385.53;5034276;28;20152;-44
2022/03/08 01:02:54;;;;;;;19.73;9.25;;;;;;;1.62;68.28;102383.78;5034146;28;20033;-42
2022/03/08 01:05:19;;;;;;;17.15;9.15;;;;;;;1.68;68.21;102383.41;5035452;28;20518;-42
2022/03/08 01:07:45;;;;;;;17.65;9.30;;;;;;;1.80;67.69;102377.59;5034637;28;20029;-42
2022/03/08 01:10:15;;;;;;;18.10;9.38;;;;;;;1.72;67.97;102374.69;5035244;28;20044;-42
2022/03/08 01:12:41;;;;;;;22.50;9.30;;;;;;;1.71;67.52;102367.94;5035656;28;20096;-42
2022/03/08 01:15:07;;;;;;;19.42;9.45;;;;;;;1.74;67.66;102377.16;5035376;28;20476;-40
2022/03/08 01:17:33;;;;;;;18.23;9.35;;;;;;;1.56;68.23;102364.56;5035179;28;20025;-44
2022/03/08 01:19:59;;;;;;;16.75;8.88;;;;;;;1.49;68.26;102362.47;5035445;28;20547;-43
2022/03/08 01:22:24;;;;;;;18.48;9.55;;;;;;;1.66;68.24;102369.13;5035060;28;20054;-45
2022/03/08 01:24:49;;;;;;;19.50;9.32;;;;;;;1.64;68.15;102356.50;5035125;28;20029;-44
2022/03/08 01:27:15;;;;;;;16.75;9.48;;;;;;;1.64;67.88;102366.69;5035025;28;20071;-44
2022/03/08 01:29:40;;;;;;;17.67;8.88;;;;;;;1.75;67.03;102360.94;5035206;28;20095;-43
2022/03/08 01:32:06;;;;;;;16.73;9.25;;;;;;;1.54;67.69;102340.09;5035171;28;20079;-44
2022/03/08 01:34:31;;;;;;;17.38;9.15;;;;;;;1.55;68.45;102362.94;5034861;28;20032;-46
2022/03/08 01:36:56;;;;;;;20.35;10.35;;;;;;;1.54;68.47;102352.81;5035611;28;20053;-44
2022/03/08 01:39:22;;;;;;;16.05;9.45;;;;;;;1.62;67.57;102362.59;5034711;28;20052;-43
2022/03/08 01:41:48;;;;;;;15.60;9.15;;;;;;;1.52;68.33;102352.91;5034691;28;20080;-42
2022/03/08 01:44:13;;;;;;;20.52;9.25;;;;;;;1.41;68.08;102347.63;5034645;28;20021;-44
2022/03/08 01:46:40;;;;;;;18.15;9.45;;;;;;;1.52;68.57;102352.09;5033986;28;20029;-43
2022/03/08 01:49:06;;;;;;;17.15;10.00;;;;;;;1.42;68.61;102338.25;5034813;28;20029;-43
2022/03/08 01:51:33;;;;;;;18.60;9.43;;;;;;;1.32;68.41;102341.34;5034810;28;20411;-43
2022/03/08 01:53:59;;;;;;;15.52;9.40;;;;;;;1.26;69.08;102341.66;5034738;28;20372;-43
2022/03/08 01:56:24;;;;;;;16.17;9.27;;;;;;;1.33;68.65;102349.81;5034351;28;20032;-44
2022/03/08 01:58:50;;;;;;;38.13;10.38;;;;;;;1.17;69.10;102337.09;5034592;28;20028;-43
2022/03/08 02:01:15;;;;;;;16.75;9.20;;;;;;;1.12;69.22;102331.44;5034020;28;20025;-43
2022/03/08 02:03:41;;;;;;;17.63;9.23;;;;;;;1.10;69.79;102323.91;5034715;28;20025;-42
2022/03/08 02:06:06;;;;;;;17.08;9.75;;;;;;;1.03;69.62;102320.06;5034185;28;20030;-43
2022/03/08 02:08:31;;;;;;;17.60;9.60;;;;;;;1.12;69.70;102328.91;5032768;28;20070;-43
2022/03/08 02:10:57;;;;;;;17.05;9.68;;;;;;;1.09;69.14;102329.09;5034300;28;20025;-43
2022/03/08 02:13:25;;;;;;;15.02;9.13;;;;;;;1.08;69.16;102320.63;5033977;28;20025;-42
2022/03/08 02:15:51;;;;;;;17.30;9.52;;;;;;;1.02;70.28;102315.06;5034212;28;20033;-43
2022/03/08 02:18:18;;;;;;;16.88;8.98;;;;;;;1.04;69.33;102315.81;5034466;28;20079;-43
2022/03/08 02:20:44;;;;;;;18.05;9.43;;;;;;;1.13;69.29;102305.91;5033876;28;20033;-42
2022/03/08 02:23:09;;;;;;;17.42;10.05;;;;;;;1.05;69.46;102307.25;5033743;28;20033;-42
2022/03/08 02:25:34;;;;;;;17.02;9.60;;;;;;;1.03;69.45;102298.88;5033821;28;20026;-43
2022/03/08 02:28:00;;;;;;;19.23;9.40;;;;;;;1.14;68.60;102296.53;5034575;28;20109;-42
2022/03/08 02:30:26;;;;;;;16.90;9.77;;;;;;;1.14;68.92;102299.09;5033716;28;20055;-42
2022/03/08 02:32:51;;;;;;;15.68;8.77;;;;;;;1.05;69.48;102294.53;5033696;28;20022;-42
2022/03/08 02:35:20;;;;;;;17.17;9.55;;;;;;;0.81;69.59;102297.56;5034109;28;20025;-42
2022/03/08 02:37:58;;;;;;;17.10;9.60;;;;;;;0.83;69.68;102289.81;5033580;28;20029;-43
2022/03/08 02:40:30;;;;;;;17.30;9.60;;;;;;;0.89;69.76;102295.41;5032325;28;20031;-43
2022/03/08 02:42:55;;;;;;;19.48;9.38;;;;;;;0.88;69.51;102291.22;5034012;28;20036;-42
2022/03/08 02:45:22;;;;;;;16.67;10.18;;;;;;;0.96;69.28;102292.50;5033733;28;20021;-42
2022/03/08 02:47:47;;;;;;;16.52;9.18;;;;;;;0.82;69.92;102289.00;5033534;28;20028;-43
2022/03/08 02:50:14;;;;;;;16.88;9.15;;;;;;;0.79;70.62;102278.19;5033686;28;20022;-43
2022/03/08 02:52:41;;;;;;;18.33;10.20;;;;;;;0.62;70.45;102279.13;5033434;28;20029;-43
2022/03/08 02:55:08;;;;;;;18.40;9.68;;;;;;;0.81;70.12;102295.03;5033706;28;20025;-43
2022/03/08 02:57:33;;;;;;;16.77;9.20;;;;;;;0.74;70.54;102286.06;5033172;28;20053;-41
2022/03/08 02:59:59;;;;;;;16.67;9.50;;;;;;;0.67;70.26;102290.69;5033390;28;20032;-42
2022/03/08 03:02:24;;;;;;;17.00;9.05;;;;;;;0.55;70.85;102286.28;5031900;28;20442;-42
2022/03/08 03:04:49;;;;;;;17.40;9.55;;;;;;;0.59;70.95;102279.31;5033340;28;20029;-42
2022/03/08 03:07:15;;;;;;;17.95;9.18;;;;;;;0.57;70.67;102276.84;5033512;28;20025;-44
2022/03/08 03:09:40;;;;;;;15.50;9.80;;;;;;;0.54;71.03;102264.28;5033221;28;20022;-41
2022/03/08 03:12:06;;;;;;;18.52;9.32;;;;;;;0.48;71.30;102268.91;5033530;28;20017;-42
2022/03/08 03:14:32;;;;;;;21.70;9.85;;;;;;;0.45;70.89;102267.34;5031977;28;20036;-43
2022/03/08 03:16:57;;;;;;;18.17;9.98;;;;;;;0.36;71.65;102261.03;5031821;28;20025;-43
2022/03/08 03:19:22;;;;;;;15.23;9.25;;;;;;;0.32;71.66;102259.56;5033372;28;20022;-42
2022/03/08 03:21:48;;;;;;;16.90;9.45;;;;;;;0.31;71.94;102257.09;5033320;28;20064;-43
2022/03/08 03:24:13;;;;;;;19.52;9.70;;;;;;;0.25;72.47;102265.88;5033104;28;20029;-43
2022/03/08 03:26:38;;;;;;;18.77;10.00;;;;;;;0.14;72.47;102266.44;5033366;28;20032;-43
2022/03/08 03:29:04;;;;;;;17.67;9.25;;;;;;;0.31;71.77;102268.09;5032974;28;20391;-43
2022/03/08 03:31:29;;;;;;;18.60;9.38;;;;;;;0.42;71.11;102259.88;5033082;28;20124;-40
2022/03/08 03:33:54;;;;;;;17.15;9.77;;;;;;;0.44;70.27;102273.34;5031997;28;20032;-42
2022/03/08 03:36:20;;;;;;;16.52;9.75;;;;;;;0.53;70.09;102265.19;5015235;28;20034;-43
2022/03/08 03:38:45;;;;;;;21.95;10.43;;;;;;;0.36;70.92;102267.84;5015403;28;20088;-42
2022/03/08 03:41:10;;;;;;;15.20;8.90;;;;;;;0.28;71.21;102265.72;5033454;28;20040;-43
2022/03/08 03:43:36;;;;;;;17.17;9.88;;;;;;;0.21;71.30;102267.78;5033096;28;20041;-43
2022/03/08 03:46:02;;;;;;;22.98;10.13;;;;;;;0.36;71.07;102267.84;5032896;28;20387;-42
2022/03/08 03:48:27;;;;;;;17.73;10.32;;;;;;;0.11;72.18;102259.00;5031702;28;20033;-42
2022/03/08 03:50:52;;;;;;;19.92;9.68;;;;;;;0.19;71.47;102259.41;5033387;28;20033;-44
2022/03/08 03:53:18;;;;;;;17.67;9.50;;;;;;;0.38;70.39;102261.78;5032756;28;20452;-43
2022/03/08 03:55:43;;;;;;;20.25;9.98;;;;;;;0.16;71.83;102249.41;5033064;28;20031;-43
2022/03/08 03:58:08;;;;;;;17.23;9.40;;;;;;;0.01;71.70;102257.06;5032911;28;20120;-43
2022/03/08 04:00:33;;;;;;;16.90;9.63;;;;;;;0.02;71.83;102244.25;5032731;28;20041;-43
2022/03/08 04:02:59;;;;;;;18.75;9.85;;;;;;;0.10;71.85;102254.00;5032882;28;20022;-42
2022/03/08 04:05:24;;;;;;;15.48;9.05;;;;;;;0.29;70.41;102261.44;5032715;28;20310;-43
2022/03/08 04:07:49;;;;;;;15.05;9.30;;;;;;;0.20;70.62;102262.75;5032704;28;20026;-43
2022/03/08 04:10:15;;;;;;;18.30;9.93;;;;;;;0.12;70.34;102253.03;5036135;28;20043;-43
2022/03/08 04:12:42;;;;;;;16.02;9.13;;;;;;;0.08;70.80;102261.69;5034990;28;20490;-44
2022/03/08 04:15:08;;;;;;;19.05;9.15;;;;;;;-0.03;70.41;102259.75;5036209;28;20106;-42
2022/03/08 04:17:33;;;;;;;17.48;9.45;;;;;;;0.18;69.95;102254.41;5036659;28;20052;-43
2022/03/08 04:19:59;;;;;;;15.88;8.50;;;;;;;-0.28;71.08;102255.13;5036199;28;20060;-42
2022/03/08 04:22:24;;;;;;;16.60;9.40;;;;;;;-0.13;70.67;102250.16;5036042;28;20055;-42
2022/03/08 04:24:49;;;;;;;20.13;9.15;;;;;;;-0.02;70.28;102245.31;5034827;28;20062;-42
2022/03/08 04:27:15;;;;;;;16.77;9.02;;;;;;;0.02;70.09;102243.44;5018272;28;20476;-43
2022/03/08 04:29:40;;;;;;;15.90;9.02;;;;;;;0.05;70.29;102240.72;5036292;28;20107;-42
2022/03/08 04:32:06;;;;;;;18.20;9.55;;;;;;;-0.02;70.46;102235.16;5036480;28;20021;-42
2022/03/08 04:34:31;;;;;;;16.88;8.68;;;;;;;-0.02;70.54;102228.34;5036899;28;20035;-44
2022/03/08 04:36:56;;;;;;;18.80;9.52;;;;;;;0.08;69.75;102240.56;5036580;28;20021;-43
2022/03/08 04:39:22;;;;;;;14.98;8.75;;;;;;;0.02;69.91;102240.88;5035861;28;20447;-43
2022/03/08 04:41:47;;;;;;;18.13;9.10;;;;;;;0.12;69.66;102242.03;5035996;28;20025;-42
2022/03/08 04:44:13;;;;;;;14.65;8.35;;;;;;;0.00;69.46;102241.00;5035833;28;20027;-43
2022/03/08 04:46:38;;;;;;;18.05;8.40;;;;;;;0.15;69.55;102242.69;5035778;28;20025;-42
2022/03/08 04:49:03;;;;;;;15.38;8.95;;;;;;;0.08;69.98;102236.28;5035751;28;20465;-42
2022/03/08 04:51:28;;;;;;;17.55;9.05;;;;;;;-0.01;69.24;102235.06;5036000;28;20026;-42
2022/03/08 04:53:54;;;;;;;17.27;8.93;;;;;;;0.09;69.57;102240.50;5035688;28;20044;-42
2022/03/08 04:56:19;;;;;;;19.90;8.48;;;;;;;0.04;69.39;102242.44;5035633;28;20052;-42
2022/03/08 04:58:45;;;;;;;17.42;8.55;;;;;;;-0.12;70.42;102242.44;5034306;28;20041;-43
2022/03/08 05:01:11;;;;;;;14.23;8.77;;;;;;;0.03;70.19;102233.19;5035757;28;20437;-43
2022/03/08 05:03:36;;;;;;;15.52;8.55;;;;;;;0.03;69.52;102245.06;5035358;28;20029;-43
2022/03/08 05:06:02;;;;;;;19.23;8.68;;;;;;;-0.13;69.59;102237.44;5035966;28;20036;-47
2022/03/08 05:08:28;;;;;;;15.07;7.95;;;;;;;-0.05;70.38;102231.06;5034020;28;20022;-44
2022/03/08 05:10:53;;;;;;;16.40;8.18;;;;;;;-0.12;69.63;102236.53;5035870;28;20021;-42
2022/03/08 05:13:18;;;;;;;16.15;8.57;;;;;;;-0.11;70.40;102231.38;5035292;28;20014;-43
2022/03/08 05:15:47;;;;;;;14.70;8.77;;;;;;;-0.05;70.10;102227.69;5035303;28;20021;-43
2022/03/08 05:18:12;;;;;;;17.05;8.18;;;;;;;-0.01;69.51;102226.63;5035187;28;20025;-44
2022/03/08 05:20:37;;;;;;;16.67;8.40;;;;;;;-0.17;69.93;102215.63;5034034;28;20104;-43
2022/03/08 05:23:03;;;;;;;16.50;8.80;;;;;;;-0.13;69.84;102212.84;5035565;28;20021;-44
2022/03/08 05:25:28;;;;;;;13.63;8.38;;;;;;;-0.21;70.01;102209.91;5034994;28;20600;-44
2022/03/08 05:27:54;;;;;;;16.80;7.78;;;;;;;-0.01;69.12;102206.28;5035266;28;20021;-41
2022/03/08 05:30:19;;;;;;;19.05;8.27;;;;;;;-0.10;69.59;102212.69;5035123;28;20379;-43
2022/03/08 05:32:45;;;;;;;14.77;7.95;;;;;;;-0.08;69.66;102208.34;5035153;28;20075;-44
2022/03/08 05:35:11;;;;;;;14.30;8.13;;;;;;;-0.06;69.38;102208.25;5035143;28;20080;-43
2022/03/08 05:37:36;;;;;;;17.50;8.38;;;;;;;-0.24;69.41;102203.25;5035020;28;20033;-44
2022/03/08 05:40:06;;;;;;;13.98;7.72;;;;;;;-0.31;69.83;102206.22;5034717;28;20021;-43
2022/03/08 05:42:31;;;;;;;13.57;7.60;;;;;;;-0.25;69.95;102210.97;5034337;28;20480;-44
2022/03/08 05:44:57;;;;;;;12.77;7.88;;;;;;;-0.15;69.65;102208.75;5034830;28;20037;-44
2022/03/08 05:47:23;;;;;;;13.57;7.97;;;;;;;-0.23;70.29;102211.72;5033256;28;20049;-44
2022/03/08 05:49:48;;;;;;;15.07;8.18;;;;;;;-0.25;69.72;102209.25;5034470;28;20499;-47
2022/03/08 05:52:13;;;;;;;14.32;8.25;;;;;;;-0.35;69.85;102215.69;5034415;28;20021;-42
2022/03/08 05:54:38;;;;;;;15.27;8.18;;;;;;;-0.39;69.36;102209.16;5016724;28;20021;-43
2022/03/08 05:57:04;;;;;;;14.45;7.70;;;;;;;-0.32;69.72;102212.19;5034181;28;20230;-44
2022/03/08 05:59:29;;;;;;;13.48;7.25;;;;;;;-0.22;68.96;102220.16;5034922;28;20033;-44
2022/03/08 06:01:55;;;;;;;14.25;8.00;;;;;;;-0.55;69.24;102224.34;5034833;28;20372;-43
2022/03/08 06:04:20;;;;;;;13.38;7.80;;;;;;;-0.39;69.58;102210.88;5016585;28;20029;-43
2022/03/08 06:06:45;;;;;;;15.80;8.07;;;;;;;-0.34;69.49;102219.91;5034305;28;20030;-43
2022/03/08 06:09:11;;;;;;;13.27;7.43;;;;;;;-0.26;69.13;102225.41;5034695;28;20079;-44
2022/03/08 06:11:36;;;;;;;14.23;7.60;;;;;;;-0.25;68.75;102216.88;5034692;28;20032;-43
2022/03/08 06:14:01;;;;;;;14.15;7.40;;;;;;;-0.27;69.03;102220.38;5034878;28;20025;-43
2022/03/08 06:16:27;;;;;;;13.73;7.45;;;;;;;-0.31;68.92;102216.38;5034360;28;20112;-44
2022/03/08 06:18:55;;;;;;;13.63;7.90;;;;;;;-0.14;69.03;102215.50;5034045;28;20088;-43
2022/03/08 06:21:21;;;;;;;19.08;7.95;;;;;;;-0.25;68.27;102216.06;5034194;28;20030;-43
2022/03/08 06:23:46;;;;;;;13.38;7.55;;;;;;;-0.18;67.96;102212.28;5034407;28;20021;-42
2022/03/08 06:26:12;;;;;;;11.73;7.15;;;;;;;-0.08;67.44;102221.06;5034527;28;20032;-42
2022/03/08 06:28:37;;;;;;;20.20;7.85;;;;;;;-0.07;68.12;102216.78;5034187;28;20104;-43
2022/03/08 06:31:03;;;;;;;10.48;6.75;;;;;;;0.02;67.63;102223.91;5033812;28;20060;-49
2022/03/08 06:33:28;;;;;;;23.25;8.23;;;;;;;0.00;67.16;102215.56;5034074;28;20025;-42
2022/03/08 06:35:53;;;;;;;16.88;7.72;;;;;;;-0.02;67.43;102220.72;5033817;28;20082;-41
2022/03/08 06:38:19;;;;;;;12.90;7.30;;;;;;;-0.01;66.99;102219.81;5033755;28;20052;-42
2022/03/08 06:40:44;;;;;;;12.68;7.40;;;;;;;-0.13;67.77;102209.50;5033984;28;20056;-44
2022/03/08 06:43:09;;;;;;;13.05;7.18;;;;;;;-0.19;68.41;102214.91;5033589;28;20471;-41
2022/03/08 06:45:35;;;;;;;19.90;7.68;;;;;;;-0.02;68.30;102217.38;5033616;28;20072;-43
2022/03/08 06:48:00;;;;;;;13.98;7.70;;;;;;;0.01;67.96;102213.84;5032153;28;20423;-42
2022/03/08 06:50:25;;;;;;;16.48;7.15;;;;;;;0.13;67.44;102218.25;5033810;28;20442;-44
2022/03/08 06:52:51;;;;;;;18.30;7.60;;;;;;;0.23;66.74;102214.28;5033597;28;20017;-42
2022/03/08 06:55:16;;;;;;;13.23;7.68;;;;;;;0.30;67.05;102225.78;5032171;28;20021;-42
2022/03/08 06:57:41;;;;;;;13.50;7.88;;;;;;;0.31;66.65;102227.41;5033334;28;20049;-43
2022/03/08 07:00:08;;;;;;;17.88;7.97;;;;;;;0.17;67.94;102217.16;5033969;28;20453;-41
2022/03/08 07:02:34;;;;;;;14.32;7.53;;;;;;;0.24;67.67;102217.66;5033242;28;20030;-43
2022/03/08 07:04:59;;;;;;;13.00;7.70;;;;;;;0.33;66.96;102210.34;5033225;28;20030;-42
2022/03/08 07:07:24;;;;;;;10.95;7.50;;;;;;;0.44;66.35;102218.19;5032867;28;20022;-43
2022/03/08 07:09:50;;;;;;;16.80;7.97;;;;;;;0.43;65.64;102213.19;5031012;28;20523;-41
2022/03/08 07:12:15;;;;;;;14.07;7.22;;;;;;;0.57;64.76;102222.59;5032492;28;20052;-43
2022/03/08 07:14:41;;;;;;;11.85;7.13;;;;;;;0.70;64.26;102218.47;5032622;28;20023;-42
2022/03/08 07:17:06;;;;;;;11.30;6.97;;;;;;;0.77;64.13;102217.19;5032566;28;20544;-44
2022/03/08 07:19:31;;;;;;;13.85;6.97;;;;;;;1.01;63.10;102220.06;5014820;28;20025;-43
2022/03/08 07:21:57;;;;;;;17.73;6.85;;;;;;;1.02;63.56;102213.25;5032816;28;20017;-42
2022/03/08 07:24:22;;;;;;;14.18;7.22;;;;;;;1.23;62.72;102216.25;5033328;28;20095;-42
2022/03/08 07:26:47;;;;;;;13.32;6.80;;;;;;;1.06;62.36;102220.59;5033137;28;20071;-42
2022/03/08 07:29:13;;;;;;;11.05;6.82;;;;;;;1.26;62.46;102223.69;5032959;28;20025;-42
2022/03/08 07:31:38;;;;;;;11.32;6.50;;;;;;;1.48;62.05;102225.81;5032876;28;20033;-43
2022/03/08 07:34:03;;;;;;;12.68;6.53;;;;;;;1.56;60.97;102218.53;5033036;28;20018;-43
2022/03/08 07:36:29;;;;;;;13.30;6.60;;;;;;;1.57;60.92;102236.25;5033448;28;20032;-48
2022/03/08 07:38:55;;;;;;;14.40;6.85;;;;;;;1.69;60.55;102234.69;5032891;28;20021;-44
2022/03/08 07:41:20;;;;;;;11.20;7.03;;;;;;;1.87;60.19;102232.75;5033086;28;20079;-43
2022/03/08 07:43:45;;;;;;;11.90;6.60;;;;;;;2.07;59.51;102228.13;5034329;28;20032;-43
2022/03/08 07:46:11;;;;;;;11.55;6.60;;;;;;;4.81;51.83;102227.31;5036779;28;20036;-43
2022/03/08 07:48:36;;;;;;;9.55;6.88;;;;;;;6.62;47.04;102226.09;5036919;28;20032;-41
2022/03/08 07:51:02;;;;;;;15.35;6.45;;;;;;;7.85;42.66;102220.88;5036821;28;20108;-42
2022/03/08 07:53:27;;;;;;;11.07;6.15;;;;;;;8.32;42.11;102221.03;5036416;28;20477;-43
2022/03/08 07:55:53;;;;;;;13.63;6.30;;;;;;;7.57;42.86;102219.88;5035725;28;20369;-42
2022/03/08 07:58:19;;;;;;;11.73;6.35;;;;;;;7.17;42.78;102226.66;5037120;28;20049;-42
2022/03/08 08:00:45;;;;;;;11.52;6.40;;;;;;;9.29;38.82;102218.22;5036844;28;20021;-42
2022/03/08 08:03:10;;;;;;;11.45;6.47;;;;;;;8.65;40.23;102224.13;5036762;28;20365;-43
2022/03/08 08:05:36;;;;;;;9.55;6.57;;;;;;;8.40;40.64;102233.25;5036513;28;20033;-42
2022/03/08 08:08:04;;;;;;;11.95;6.55;;;;;;;9.25;38.84;102240.91;5035707;28;20022;-41
2022/03/08 08:10:30;;;;;;;10.20;6.70;;;;;;;10.54;36.72;102220.88;5035237;28;20041;-41
2022/03/08 08:12:55;;;;;;;10.20;6.20;;;;;;;11.52;34.92;102230.88;5035560;28;20037;-42
2022/03/08 08:15:20;;;;;;;9.20;6.25;;;;;;;11.99;33.43;102216.59;5035196;28;20112;-40
2022/03/08 08:17:46;;;;;;;7.70;6.05;;;;;;;12.83;31.25;102238.72;5035100;28;20021;-40
2022/03/08 08:20:11;;;;;;;10.00;6.35;;;;;;;11.57;33.21;102240.78;5035138;28;20380;-40
2022/03/08 08:22:37;;;;;;;8.15;5.85;;;;;;;11.00;34.77;102234.41;5034815;28;20025;-36
2022/03/08 08:25:04;;;;;;;12.05;5.75;;;;;;;11.91;33.16;102238.94;5034695;28;20017;-35
2022/03/08 08:27:30;;;;;;;9.05;6.00;;;;;;;11.94;33.57;102230.03;5034601;28;20041;-37
2022/03/08 08:29:55;;;;;;;9.48;6.30;;;;;;;10.82;33.40;102226.72;5034415;28;20029;-35
2022/03/08 08:32:20;;;;;;;8.57;5.22;;;;;;;11.28;33.08;102219.50;5035953;28;20052;-36
2022/03/08 08:34:45;;;;;;;8.90;5.55;;;;;;;10.77;33.71;102228.13;5036069;28;20037;-35
2022/03/08 08:37:11;;;;;;;6.93;5.28;;;;;;;12.59;31.15;102222.22;5035975;28;20021;-35
2022/03/08 08:39:37;;;;;;;10.48;8.35;;;;;;;11.09;32.61;102226.69;5035918;28;20040;-32
2022/03/08 08:42:02;;;;;;;9.98;5.20;;;;;;;12.98;30.51;102220.69;5035780;28;20030;-39
2022/03/08 08:44:28;;;;;;;7.47;5.10;;;;;;;13.42;29.51;102226.19;5035473;28;20103;-36
2022/03/08 08:46:54;;;;;;;9.00;5.10;;;;;;;12.63;29.68;102220.13;5034909;28;20027;-36
2022/03/08 08:49:20;;;;;;;9.02;5.22;;;;;;;12.22;31.11;102217.56;5035773;28;20148;-35
2022/03/08 08:51:45;;;;;;;11.93;8.63;;;;;;;11.61;31.78;102211.00;5035867;28;20105;-36
2022/03/08 08:54:11;;;;;;;11.63;5.30;;;;;;;12.71;29.92;102211.50;5035278;28;20460;-36
2022/03/08 08:56:37;;;;;;;13.73;5.57;;;;;;;13.39;29.13;102210.97;5034700;28;20095;-36
2022/03/08 08:59:03;;;;;;;7.95;5.35;;;;;;;13.58;28.59;102209.72;5035365;28;20460;-37
2022/03/08 09:01:29;;;;;;;8.63;4.88;;;;;;;14.29;28.06;102201.72;5034438;28;20627;-36
2022/03/08 09:03:54;;;;;;;7.97;5.10;;;;;;;14.02;27.95;102200.50;5035521;28;20034;-36
2022/03/08 09:06:19;;;;;;;8.13;5.10;;;;;;;12.83;29.86;102208.41;5035599;28;20060;-35
2022/03/08 09:08:45;;;;;;;13.23;4.97;;;;;;;14.17;28.29;102207.31;5035481;28;20361;-37
2022/03/08 09:11:11;;;;;;;6.80;4.75;;;;;;;12.64;29.55;102209.59;5034529;28;20030;-35
2022/03/08 09:13:37;;;;;;;7.07;5.05;;;;;;;13.76;28.40;102188.66;5034981;28;20044;-35
2022/03/08 09:16:03;;;;;;;9.95;5.07;;;;;;;13.90;28.30;102194.91;5035350;28;20460;-34
2022/03/08 09:18:28;;;;;;;7.65;4.57;;;;;;;13.40;28.46;102170.22;5017179;28;20025;-35
2022/03/08 09:20:53;;;;;;;7.65;4.90;;;;;;;13.66;28.26;102188.06;5034925;28;20392;-34
2022/03/08 09:23:19;;;;;;;6.90;5.00;;;;;;;14.62;26.59;102181.44;5034933;28;20124;-35
2022/03/08 09:25:44;;;;;;;6.97;4.63;;;;;;;13.75;27.10;102192.22;5034990;28;20427;-36
2022/03/08 09:28:10;;;;;;;10.18;4.82;;;;;;;13.38;27.86;102173.00;5017484;28;20044;-34
2022/03/08 09:30:36;;;;;;;7.18;4.72;;;;;;;14.40;26.79;102180.47;5035134;28;20078;-37
2022/03/08 09:33:02;;;;;;;12.02;8.60;;;;;;;13.72;27.54;102153.59;5034726;28;20044;-38
2022/03/08 09:35:28;;;;;;;6.85;4.75;;;;;;;14.04;27.06;102193.31;5034868;28;20460;-36
2022/03/08 09:37:54;;;;;;;7.30;4.60;;;;;;;11.98;30.08;102163.97;5034822;28;20525;-36
2022/03/08 09:40:20;;;;;;;12.80;5.13;;;;;;;14.78;26.10;102176.00;5034945;28;20041;-36
2022/03/08 09:42:47;;;;;;;6.35;4.60;;;;;;;14.09;26.76;102171.00;5034853;28;20021;-35
2022/03/08 09:45:14;;;;;;;6.68;4.90;;;;;;;15.72;25.15;102194.31;5034644;28;20115;-38
2022/03/08 09:47:40;;;;;;;6.55;4.65;;;;;;;15.54;25.01;102180.91;5035068;28;20396;-36
2022/03/08 09:50:06;;;;;;;7.72;5.10;;;;;;;13.97;26.96;102167.22;5033538;28;20036;-37
2022/03/08 09:52:36;;;;;;;7.55;5.10;;;;;;;14.00;27.25;102165.06;5034398;28;20025;-36
2022/03/08 09:55:04;;;;;;;8.82;4.70;;;;;;;15.86;24.69;102158.75;5034650;28;20026;-35
2022/03/08 09:57:29;;;;;;;6.90;4.75;;;;;;;16.27;24.22;102162.47;5034056;28;20400;-36
2022/03/08 09:59:55;;;;;;;9.65;4.85;;;;;;;16.05;24.40;102146.06;5034276;28;20037;-35
2022/03/08 10:02:22;;;;;;;14.18;5.22;;;;;;;15.67;24.73;102162.78;5034078;28;20079;-36
2022/03/08 10:05:01;;;;;;;9.77;5.35;;;;;;;15.61;24.61;102155.69;5034345;28;20021;-35
2022/03/08 10:07:26;;;;;;;8.90;5.22;;;;;;;14.66;26.96;102154.84;5033370;28;20049;-41
2022/03/08 10:09:57;;;;;;;12.25;5.57;;;;;;;13.68;26.86;102144.56;5034018;28;20428;-35
2022/03/08 10:12:22;;;;;;;11.00;5.40;;;;;;;13.80;27.50;102150.13;5034092;28;20096;-35
2022/03/08 10:14:47;;;;;;;7.90;5.38;;;;;;;14.11;26.76;102143.03;5033958;28;20109;-35
2022/03/08 10:17:35;;;;;;;8.05;5.30;;;;;;;14.20;26.74;102144.56;5032366;28;20029;-36
2022/03/08 10:20:00;;;;;;;8.00;5.30;;;;;;;13.41;27.73;102138.09;5032446;28;20052;-36
2022/03/08 10:22:32;;;;;;;13.95;5.80;;;;;;;13.26;27.74;102123.25;5033731;28;20456;-35
2022/03/08 10:25:20;;;;;;;8.75;5.38;;;;;;;11.85;29.94;102130.75;5033916;28;20044;-35
2022/03/08 10:27:59;;;;;;;8.82;5.38;;;;;;;9.62;33.64;102130.84;5034443;28;20479;-35
2022/03/08 10:30:45;;;;;;;8.85;5.70;;;;;;;10.03;33.93;102108.75;5033895;28;20025;-35
2022/03/08 10:33:11;;;;;;;9.07;5.15;;;;;;;10.52;33.33;102116.00;5033889;28;20049;-35
2022/03/08 10:35:42;;;;;;;7.93;5.30;;;;;;;11.05;32.04;102113.16;5034048;28;20029;-34
2022/03/08 10:38:13;;;;;;;8.90;5.78;;;;;;;10.18;33.15;102106.41;5033796;28;20025;-36
2022/03/08 10:40:40;;;;;;;11.20;5.32;;;;;;;11.13;33.18;102101.22;5033650;28;20526;-37
2022/03/08 10:43:14;;;;;;;13.65;5.28;;;;;;;10.19;32.12;102097.72;5033722;28;20026;-36
2022/03/08 10:45:43;;;;;;;6.95;4.75;;;;;;;9.30;33.60;102088.28;5033876;28;20071;-35
2022/03/08 10:48:09;;;;;;;8.25;5.35;;;;;;;9.91;32.34;102087.50;5033781;28;20029;-36
2022/03/08 10:50:37;;;;;;;11.07;5.30;;;;;;;9.85;32.05;102098.44;5033992;28;20026;-36
2022/03/08 10:53:04;;;;;;;7.40;4.80;;;;;;;10.31;32.30;102106.84;5033769;28;20021;-36
2022/03/08 10:55:30;;;;;;;7.32;4.70;;;;;;;10.10;31.96;102099.44;5034041;28;20029;-35
2022/03/08 10:58:04;;;;;;;9.43;4.95;;;;;;;10.03;32.46;102095.03;5033713;28;20054;-36
2022/03/08 11:00:31;;;;;;;8.18;4.90;;;;;;;10.01;32.00;102087.44;5033047;28;20349;-35
2022/03/08 11:02:58;;;;;;;9.82;5.10;;;;;;;10.10;31.97;102096.06;5031795;28;20029;-35
2022/03/08 11:05:26;;;;;;;7.00;4.88;;;;;;;9.77;32.12;102087.25;5033040;28;20413;-34
2022/03/08 11:07:52;;;;;;;7.30;4.70;;;;;;;9.78;32.84;102074.19;5033418;28;20094;-35
2022/03/08 11:10:18;;;;;;;9.10;5.13;;;;;;;9.99;32.26;102076.44;5033387;28;20099;-39
2022/03/08 11:12:44;;;;;;;11.82;5.20;;;;;;;9.68;32.53;102058.78;5033408;28;20035;-35
2022/03/08 11:15:13;;;;;;;7.63;5.18;;;;;;;10.64;31.93;102081.16;5032873;28;20110;-36
2022/03/08 11:17:39;;;;;;;10.57;4.75;;;;;;;10.58;31.48;102066.28;5031915;28;20064;-37
2022/03/08 11:20:08;;;;;;;6.65;4.78;;;;;;;10.44;31.60;102061.69;5035492;28;20030;-35